createdAt,value
2018-11-27T00:00:51.645Z,97598.06
2018-11-27T00:03:20.251Z,97596.65
2018-11-27T00:05:48.480Z,97596.01
2018-11-27T00:08:16.746Z,97592.33
2018-11-27T00:10:45.022Z,97591.53
2018-11-27T00:13:13.635Z,97599.08
2018-11-27T00:15:42.229Z,97594.37
2018-11-27T00:18:30.134Z,97595.44
2018-11-27T00:20:58.398Z,97602.03
2018-11-27T00:23:27.394Z,97602.67
2018-11-27T00:25:56.607Z,97602.09
2018-11-27T00:28:25.201Z,97607.67
2018-11-27T00:30:53.403Z,97609.08
2018-11-27T00:33:21.621Z,97606.81
2018-11-27T00:35:50.121Z,97615.73
2018-11-27T00:38:18.921Z,97614.02
2018-11-27T00:40:47.862Z,97611.97
2018-11-27T00:43:16.444Z,97617.17
2018-11-27T00:45:44.735Z,97624.05
2018-11-27T00:48:33.023Z,97625.73
2018-11-27T00:51:02.482Z,97618.92
2018-11-27T00:53:31.325Z,97629.16
2018-11-27T00:55:59.930Z,97629.56
2018-11-27T00:58:29.302Z,97636.84
2018-11-27T01:00:57.784Z,97634.39
2018-11-27T01:03:26.292Z,97640.45
2018-11-27T01:05:54.852Z,97636.37
2018-11-27T01:08:23.958Z,97642.30
2018-11-27T01:10:52.423Z,97648.38
2018-11-27T01:13:21.306Z,97656.62
2018-11-27T01:15:49.513Z,97659.11
2018-11-27T01:18:18.273Z,97663.61
2018-11-27T01:20:47.281Z,97665.62
2018-11-27T01:23:15.790Z,97661.84
2018-11-27T01:25:44.950Z,97671.91
2018-11-27T01:28:13.897Z,97676.55
2018-11-27T01:30:43.063Z,97677.59
2018-11-27T01:33:11.843Z,97676.19
2018-11-27T01:35:59.762Z,97672.98
2018-11-27T01:38:29.078Z,97673.81
2018-11-27T01:40:58.475Z,97676.09
2018-11-27T01:43:27.802Z,97677.20
2018-11-27T01:45:55.464Z,97674.28
2018-11-27T01:48:24.019Z,97679.03
2018-11-27T01:50:53.175Z,97682.37
2018-11-27T01:53:21.989Z,97680.77
2018-11-27T01:55:50.904Z,97682.33
2018-11-27T01:58:19.405Z,97684.20
2018-11-27T02:00:48.577Z,97682.08
2018-11-27T02:03:17.369Z,97687.06
2018-11-27T02:05:45.576Z,97683.92
2018-11-27T02:08:14.047Z,97690.56
2018-11-27T02:10:42.830Z,97686.94
2018-11-27T02:13:11.998Z,97693.30
2018-11-27T02:15:40.584Z,97688.88
2018-11-27T02:18:09.459Z,97692.98
2018-11-27T02:20:38.363Z,97693.47
2018-11-27T02:23:07.502Z,97699.27
2018-11-27T02:25:36.375Z,97696.61
2018-11-27T02:28:05.240Z,97700.48
2018-11-27T02:30:33.751Z,97696.10
2018-11-27T02:33:02.622Z,97698.29
2018-11-27T02:35:31.916Z,97699.93
2018-11-27T02:38:01.526Z,97703.27
2018-11-27T02:40:30.403Z,97697.10
2018-11-27T02:42:58.612Z,97697.36
2018-11-27T02:45:26.821Z,97701.14
2018-11-27T02:47:55.752Z,97700.86
2018-11-27T02:50:25.325Z,97704.70
2018-11-27T02:52:54.110Z,97702.27
2018-11-27T02:55:23.276Z,97704.94
2018-11-27T02:57:51.781Z,97706.52
2018-11-27T03:00:24.083Z,97707.90
2018-11-27T03:03:12.061Z,97713.89
2018-11-27T03:05:40.239Z,97713.00
2018-11-27T03:08:08.679Z,97712.59
2018-11-27T03:10:37.213Z,97712.75
2018-11-27T03:13:05.807Z,97717.80
2018-11-27T03:15:34.427Z,97720.00
2018-11-27T03:18:03.439Z,97718.39
2018-11-27T03:20:31.914Z,97717.91
2018-11-27T03:23:01.013Z,97721.71
2018-11-27T03:25:29.902Z,97723.70
2018-11-27T03:27:58.711Z,97720.09
2018-11-27T03:30:27.430Z,97726.73
2018-11-27T03:33:15.631Z,97720.65
2018-11-27T03:35:44.081Z,97722.19
2018-11-27T03:38:12.587Z,97726.27
2018-11-27T03:40:41.223Z,97714.76
2018-11-27T03:43:10.266Z,97730.64
2018-11-27T03:45:38.836Z,97719.63
2018-11-27T03:48:27.004Z,97730.41
2018-11-27T03:50:55.842Z,97730.11
2018-11-27T03:53:24.078Z,97737.94
2018-11-27T03:55:52.333Z,97739.13
2018-11-27T03:58:21.137Z,97744.47
2018-11-27T04:00:50.004Z,97741.31
2018-11-27T04:03:18.912Z,97745.83
2018-11-27T04:05:47.800Z,97746.34
2018-11-27T04:08:16.924Z,97746.17
2018-11-27T04:10:45.714Z,97743.44
2018-11-27T04:13:14.469Z,97753.00
2018-11-27T04:15:43.047Z,97758.48
2018-11-27T04:18:11.842Z,97758.75
2018-11-27T04:20:40.730Z,97756.30
2018-11-27T04:23:09.323Z,97762.89
2018-11-27T04:25:37.898Z,97764.25
2018-11-27T04:28:08.018Z,97762.64
2018-11-27T04:30:36.273Z,97765.36
2018-11-27T04:33:05.188Z,97758.78
2018-11-27T04:35:33.762Z,97757.90
2018-11-27T04:38:02.312Z,97765.02
2018-11-27T04:40:31.257Z,97768.70
2018-11-27T04:43:02.490Z,97764.09
2018-11-27T04:45:32.798Z,97771.14
2018-11-27T04:48:02.635Z,97770.07
2018-11-27T04:50:31.507Z,97777.42
2018-11-27T04:52:59.740Z,97782.34
2018-11-27T04:55:27.989Z,97782.28
2018-11-27T04:57:57.059Z,97786.36
2018-11-27T05:00:26.666Z,97785.96
2018-11-27T05:02:55.874Z,97794.91
2018-11-27T05:05:24.447Z,97798.41
2018-11-27T05:07:53.635Z,97794.95
2018-11-27T05:10:23.239Z,97803.66
2018-11-27T05:12:52.147Z,97801.46
2018-11-27T05:15:40.083Z,97807.94
2018-11-27T05:18:08.977Z,97803.07
2018-11-27T05:20:37.849Z,97804.13
2018-11-27T05:23:07.031Z,97807.40
2018-11-27T05:25:36.158Z,97801.47
2018-11-27T05:28:04.397Z,97805.22
2018-11-27T05:30:32.637Z,97813.69
2018-11-27T05:33:01.496Z,97819.44
2018-11-27T05:35:30.594Z,97818.61
2018-11-27T05:38:00.359Z,97820.35
2018-11-27T05:40:28.597Z,97827.95
2018-11-27T05:43:00.750Z,97830.13
2018-11-27T05:45:29.633Z,97828.69
2018-11-27T05:47:58.115Z,97834.23
2018-11-27T05:50:26.909Z,97830.24
2018-11-27T05:52:55.875Z,97831.98
2018-11-27T05:55:24.342Z,97836.91
2018-11-27T05:57:53.799Z,97840.91
2018-11-27T06:00:28.824Z,97841.38
2018-11-27T06:02:58.651Z,97841.23
2018-11-27T06:05:27.226Z,97852.14
2018-11-27T06:07:56.407Z,97855.12
2018-11-27T06:10:25.305Z,97855.94
2018-11-27T06:12:53.611Z,97855.98
2018-11-27T06:15:22.866Z,97854.30
2018-11-27T06:17:52.298Z,97861.97
2018-11-27T06:20:21.679Z,97864.95
2018-11-27T06:22:49.982Z,97868.46
2018-11-27T06:25:19.890Z,97875.22
2018-11-27T06:27:50.006Z,97879.36
2018-11-27T06:30:22.682Z,97875.02
2018-11-27T06:32:51.567Z,97880.77
2018-11-27T06:35:40.256Z,97886.72
2018-11-27T06:38:09.766Z,97881.56
2018-11-27T06:40:38.410Z,97887.45
2018-11-27T06:43:08.487Z,97892.17
2018-11-27T06:45:36.695Z,97890.84
2018-11-27T06:48:04.903Z,97897.14
2018-11-27T06:50:33.500Z,97905.38
2018-11-27T06:53:02.372Z,97898.24
2018-11-27T06:55:31.122Z,97897.17
2018-11-27T06:58:00.030Z,97901.58
2018-11-27T07:00:29.081Z,97906.53
2018-11-27T07:02:58.018Z,97908.75
2018-11-27T07:05:26.254Z,97908.72
2018-11-27T07:07:55.079Z,97915.25
2018-11-27T07:10:43.830Z,97921.23
2018-11-27T07:13:32.266Z,97925.29
2018-11-27T07:16:01.479Z,97925.32
2018-11-27T07:18:30.675Z,97928.05
2018-11-27T07:20:59.156Z,97934.06
2018-11-27T07:23:27.695Z,97936.51
2018-11-27T07:25:56.536Z,97938.16
2018-11-27T07:28:25.323Z,97946.59
2018-11-27T07:30:54.230Z,97942.78
2018-11-27T07:33:22.963Z,97947.09
2018-11-27T07:35:52.201Z,97956.63
2018-11-27T07:38:20.724Z,97962.34
2018-11-27T07:40:49.577Z,97962.34
2018-11-27T07:43:17.866Z,97963.67
2018-11-27T07:45:46.431Z,97965.58
2018-11-27T07:48:15.007Z,97975.08
2018-11-27T07:50:43.598Z,97977.73
2018-11-27T07:53:11.833Z,97976.92
2018-11-27T07:55:40.450Z,97989.19
2018-11-27T07:58:28.415Z,97987.00
2018-11-27T08:00:56.958Z,97988.33
2018-11-27T08:03:25.819Z,97991.66
2018-11-27T08:05:54.407Z,97994.11
2018-11-27T08:08:22.915Z,97995.50
2018-11-27T08:10:51.824Z,97994.67
2018-11-27T08:13:20.307Z,98009.98
2018-11-27T08:15:48.780Z,98001.78
2018-11-27T08:18:17.570Z,98012.63
2018-11-27T08:20:46.161Z,98018.94
2018-11-27T08:23:14.977Z,98016.49
2018-11-27T08:25:44.145Z,98024.39
2018-11-27T08:28:12.730Z,98019.73
2018-11-27T08:30:41.230Z,98024.39
2018-11-27T08:33:09.715Z,98030.12
2018-11-27T08:35:38.267Z,98030.44
2018-11-27T08:38:07.115Z,98030.31
2018-11-27T08:40:35.946Z,98033.08
2018-11-27T08:43:04.718Z,98035.45
2018-11-27T08:45:33.576Z,98036.34
2018-11-27T08:48:02.426Z,98036.91
2018-11-27T08:50:30.986Z,98040.34
2018-11-27T08:53:00.819Z,98043.38
2018-11-27T08:55:49.167Z,98058.96
2018-11-27T08:58:37.495Z,98060.64
2018-11-27T09:01:25.107Z,98067.40
2018-11-27T09:03:54.872Z,98072.06
2018-11-27T09:06:23.069Z,98070.31
2018-11-27T09:08:52.128Z,98066.00
2018-11-27T09:11:21.652Z,98072.00
2018-11-27T09:13:50.249Z,98070.31
2018-11-27T09:16:19.122Z,98065.72
2018-11-27T09:18:48.336Z,98069.27
2018-11-27T09:21:17.290Z,98072.12
2018-11-27T09:23:46.233Z,98075.09
2018-11-27T09:26:15.191Z,98075.58
2018-11-27T09:28:43.442Z,98077.54
2018-11-27T09:31:12.381Z,98086.31
2018-11-27T09:33:41.404Z,98082.73
2018-11-27T09:36:09.666Z,98091.98
2018-11-27T09:38:38.593Z,98092.55
2018-11-27T09:41:07.185Z,98097.50
2018-11-27T09:43:36.088Z,98103.26
2018-11-27T09:46:04.664Z,98105.97
2018-11-27T09:48:33.792Z,98104.88
2018-11-27T09:51:02.408Z,98105.42
2018-11-27T09:53:30.978Z,98105.72
2018-11-27T09:55:59.940Z,98101.91
2018-11-27T09:58:28.560Z,98108.72
2018-11-27T10:01:17.257Z,98101.33
2018-11-27T10:03:45.858Z,98098.89
2018-11-27T10:06:14.331Z,98099.72
2018-11-27T10:08:42.665Z,98097.28
2018-11-27T10:11:11.269Z,98104.91
2018-11-27T10:13:40.082Z,98103.51
2018-11-27T10:16:09.145Z,98105.41
2018-11-27T10:18:37.982Z,98109.53
2018-11-27T10:21:06.691Z,98100.27
2018-11-27T10:23:35.212Z,98092.09
2018-11-27T10:26:03.999Z,98098.30
2018-11-27T10:28:32.800Z,98097.82
2018-11-27T10:31:02.094Z,98099.17
2018-11-27T10:33:30.886Z,98102.72
2018-11-27T10:36:00.607Z,98098.53
2018-11-27T10:38:29.774Z,98106.98
2018-11-27T10:40:58.584Z,98101.02
2018-11-27T10:43:27.476Z,98108.67
2018-11-27T10:45:56.566Z,98102.67
2018-11-27T10:48:25.359Z,98105.39
2018-11-27T10:50:54.249Z,98109.42
2018-11-27T10:53:42.359Z,98116.73
2018-11-27T10:56:10.870Z,98111.75
2018-11-27T10:58:39.138Z,98110.89
2018-11-27T11:01:45.837Z,98111.35
2018-11-27T11:04:14.628Z,98113.29
2018-11-27T11:06:43.423Z,98119.72
2018-11-27T11:09:11.632Z,98120.77
2018-11-27T11:11:39.864Z,98116.81
2018-11-27T11:14:08.100Z,98119.62
2018-11-27T11:16:36.597Z,98116.89
2018-11-27T11:19:05.069Z,98116.80
2018-11-27T11:21:33.297Z,98119.05
2018-11-27T11:24:01.503Z,98124.53
2018-11-27T11:26:29.753Z,98129.30
2018-11-27T11:28:58.604Z,98124.21
2018-11-27T11:31:27.511Z,98130.95
2018-11-27T11:33:56.029Z,98135.17
2018-11-27T11:36:24.234Z,98140.81
2018-11-27T11:38:52.895Z,98138.58
2018-11-27T11:41:21.283Z,98136.70
2018-11-27T11:43:49.613Z,98135.88
2018-11-27T11:46:18.863Z,98140.52
2018-11-27T11:48:47.383Z,98139.73
2018-11-27T11:51:15.872Z,98142.58
2018-11-27T11:53:44.792Z,98147.55
2018-11-27T11:56:13.986Z,98144.61
2018-11-27T11:59:01.900Z,98144.29
2018-11-27T12:01:30.449Z,98147.17
2018-11-27T12:03:58.881Z,98142.34
2018-11-27T12:06:27.094Z,98145.19
2018-11-27T12:08:55.396Z,98150.53
2018-11-27T12:11:23.850Z,98158.41
2018-11-27T12:13:52.537Z,98155.73
2018-11-27T12:16:21.015Z,98152.16
2018-11-27T12:18:50.831Z,98156.27
2018-11-27T12:21:19.588Z,98158.95
2018-11-27T12:23:48.125Z,98158.12
2018-11-27T12:26:16.628Z,98161.73
2018-11-27T12:28:45.093Z,98164.66
2018-11-27T12:31:13.317Z,98162.62
2018-11-27T12:33:42.180Z,98162.03
2018-11-27T12:36:11.372Z,98165.52
2018-11-27T12:38:40.122Z,98167.19
2018-11-27T12:41:10.350Z,98163.13
2018-11-27T12:43:37.530Z,98167.75
2018-11-27T12:46:06.253Z,98166.97
2018-11-27T12:48:34.790Z,98175.62
2018-11-27T12:51:03.375Z,98166.63
2018-11-27T12:53:32.574Z,98174.52
2018-11-27T12:56:01.470Z,98175.41
2018-11-27T12:58:30.050Z,98172.69
2018-11-27T13:00:58.575Z,98183.20
2018-11-27T13:03:46.796Z,98182.43
2018-11-27T13:06:15.027Z,98174.59
2018-11-27T13:08:44.049Z,98177.80
2018-11-27T13:11:12.525Z,98179.52
2018-11-27T13:13:42.747Z,98179.20
2018-11-27T13:16:11.336Z,98180.85
2018-11-27T13:18:39.640Z,98183.77
2018-11-27T13:21:08.428Z,98186.47
2018-11-27T13:23:37.014Z,98185.33
2018-11-27T13:26:05.524Z,98186.47
2018-11-27T13:28:33.767Z,98187.86
2018-11-27T13:31:04.046Z,98185.95
2018-11-27T13:33:46.400Z,98190.25
2018-11-27T13:36:15.011Z,98193.06
2018-11-27T13:38:44.277Z,98196.59
2018-11-27T13:41:12.491Z,98202.31
2018-11-27T13:43:41.421Z,98200.38
2018-11-27T13:46:11.027Z,98197.11
2018-11-27T13:48:39.605Z,98199.84
2018-11-27T13:51:08.760Z,98203.84
2018-11-27T13:53:37.292Z,98202.44
2018-11-27T13:56:05.607Z,98205.02
2018-11-27T13:58:33.845Z,98204.72
2018-11-27T14:01:02.728Z,98203.95
2018-11-27T14:03:30.970Z,98202.87
2018-11-27T14:06:00.538Z,98210.78
2018-11-27T14:08:30.409Z,98209.67
2018-11-27T14:10:58.633Z,98212.34
2018-11-27T14:13:27.171Z,98215.08
2018-11-27T14:15:55.448Z,98214.83
2018-11-27T14:18:23.671Z,98224.92
2018-11-27T14:21:11.555Z,98220.05
2018-11-27T14:23:39.846Z,98228.79
2018-11-27T14:26:08.058Z,98231.82
2018-11-27T14:28:36.533Z,98240.59
2018-11-27T14:31:05.084Z,98244.67
2018-11-27T14:33:52.957Z,98236.73
2018-11-27T14:36:21.619Z,98242.50
2018-11-27T14:38:50.391Z,98236.81
2018-11-27T14:41:19.267Z,98246.33
2018-11-27T14:43:48.415Z,98247.11
2018-11-27T14:46:16.951Z,98249.28
2018-11-27T14:48:45.533Z,98250.91
2018-11-27T14:51:14.135Z,98254.75
2018-11-27T14:53:43.253Z,98253.41
2018-11-27T14:56:12.014Z,98256.17
2018-11-27T14:58:40.239Z,98257.79
2018-11-27T15:01:09.010Z,98258.09
2018-11-27T15:03:37.649Z,98261.62
2018-11-27T15:06:06.238Z,98266.27
2018-11-27T15:08:34.726Z,98269.84
2018-11-27T15:11:03.256Z,98265.48
2018-11-27T15:13:31.736Z,98278.01
2018-11-27T15:16:00.260Z,98279.10
2018-11-27T15:18:29.001Z,98283.20
2018-11-27T15:20:57.959Z,98283.73
2018-11-27T15:23:26.420Z,98286.21
2018-11-27T15:25:55.159Z,98284.30
2018-11-27T15:28:23.707Z,98282.38
2018-11-27T15:30:51.919Z,98283.45
2018-11-27T15:33:40.078Z,98298.19
2018-11-27T15:36:08.808Z,98302.55
2018-11-27T15:38:37.289Z,98302.84
2018-11-27T15:41:06.221Z,98303.38
2018-11-27T15:43:34.456Z,98306.94
2018-11-27T15:46:03.031Z,98314.02
2018-11-27T15:48:31.627Z,98314.84
2018-11-27T15:51:00.117Z,98314.84
2018-11-27T15:53:28.724Z,98310.46
2018-11-27T15:56:16.933Z,98313.75
2018-11-27T15:58:45.885Z,98309.94
2018-11-27T16:01:14.441Z,98311.83
2018-11-27T16:03:43.055Z,98320.02
2018-11-27T16:06:11.615Z,98325.16
2018-11-27T16:08:40.183Z,98330.09
2018-11-27T16:11:08.729Z,98332.02
2018-11-27T16:13:37.526Z,98337.73
2018-11-27T16:16:06.099Z,98335.56
2018-11-27T16:18:35.488Z,98342.92
2018-11-27T16:21:03.678Z,98341.02
2018-11-27T16:23:32.261Z,98342.11
2018-11-27T16:26:01.060Z,98347.58
2018-11-27T16:28:29.863Z,98351.38
2018-11-27T16:30:58.122Z,98355.22
2018-11-27T16:33:26.689Z,98350.30
2018-11-27T16:35:55.483Z,98355.48
2018-11-27T16:38:24.276Z,98357.95
2018-11-27T16:40:53.200Z,98357.13
2018-11-27T16:43:21.767Z,98359.56
2018-11-27T16:45:50.861Z,98363.11
2018-11-27T16:48:19.358Z,98362.02
2018-11-27T16:50:47.919Z,98361.73
2018-11-27T16:53:16.707Z,98369.11
2018-11-27T16:55:45.187Z,98367.20
2018-11-27T16:58:13.673Z,98379.76
2018-11-27T17:00:42.558Z,98375.94
2018-11-27T17:03:11.753Z,98379.49
2018-11-27T17:05:59.695Z,98385.76
2018-11-27T17:08:27.906Z,98387.67
2018-11-27T17:10:56.461Z,98383.00
2018-11-27T17:13:24.662Z,98383.27
2018-11-27T17:15:53.251Z,98387.08
2018-11-27T17:18:21.489Z,98383.83
2018-11-27T17:20:49.975Z,98385.45
2018-11-27T17:23:18.769Z,98394.70
2018-11-27T17:25:47.280Z,98393.91
2018-11-27T17:28:45.890Z,98392.53
2018-11-27T17:31:15.323Z,98398.80
2018-11-27T17:34:03.992Z,98394.71
2018-11-27T17:36:33.180Z,98399.39
2018-11-27T17:39:01.664Z,98399.92
2018-11-27T17:41:30.456Z,98402.39
2018-11-27T17:43:58.938Z,98406.25
2018-11-27T17:46:27.431Z,98406.78
2018-11-27T17:48:55.999Z,98406.51
2018-11-27T17:51:24.227Z,98407.05
2018-11-27T17:53:52.753Z,98415.50
2018-11-27T17:56:21.265Z,98419.30
2018-11-27T17:58:49.481Z,98421.52
2018-11-27T18:01:17.978Z,98423.41
2018-11-27T18:03:46.581Z,98420.13
2018-11-27T18:06:15.143Z,98426.95
2018-11-27T18:08:43.946Z,98432.96
2018-11-27T18:11:12.163Z,98429.13
2018-11-27T18:13:40.365Z,98423.14
2018-11-27T18:16:09.186Z,98419.88
2018-11-27T18:18:37.780Z,98417.42
2018-11-27T18:21:06.292Z,98416.08
2018-11-27T18:23:54.158Z,98420.98
2018-11-27T18:26:23.013Z,98423.42
2018-11-27T18:28:52.177Z,98432.41
2018-11-27T18:31:20.655Z,98436.23
2018-11-27T18:33:49.167Z,98431.87
2018-11-27T18:36:17.369Z,98432.98
2018-11-27T18:38:45.598Z,98434.31
2018-11-27T18:41:33.470Z,98430.22
2018-11-27T18:44:21.439Z,98431.06
2018-11-27T18:46:50.746Z,98429.95
2018-11-27T18:49:19.243Z,98433.53
2018-11-27T18:51:47.728Z,98428.08
2018-11-27T18:54:15.938Z,98435.14
2018-11-27T18:56:44.142Z,98442.25
2018-11-27T18:59:12.785Z,98452.31
2018-11-27T19:01:41.632Z,98458.83
2018-11-27T19:04:09.832Z,98455.83
2018-11-27T19:06:38.054Z,98450.93
2018-11-27T19:09:09.271Z,98454.14
2018-11-27T19:11:37.547Z,98448.14
2018-11-27T19:14:06.262Z,98441.41
2018-11-27T19:16:34.536Z,98439.48
2018-11-27T19:19:03.120Z,98446.28
2018-11-27T19:21:32.062Z,98450.08
2018-11-27T19:24:00.882Z,98456.08
2018-11-27T19:26:29.323Z,98457.95
2018-11-27T19:28:59.414Z,98458.26
2018-11-27T19:31:28.238Z,98465.67
2018-11-27T19:33:57.228Z,98467.28
2018-11-27T19:36:25.707Z,98471.64
2018-11-27T19:38:54.631Z,98474.92
2018-11-27T19:41:42.249Z,98477.09
2018-11-27T19:44:10.810Z,98476.84
2018-11-27T19:46:39.327Z,98467.81
2018-11-27T19:49:07.576Z,98463.73
2018-11-27T19:51:35.792Z,98470.28
2018-11-27T19:54:05.769Z,98474.66
2018-11-27T19:56:34.535Z,98471.36
2018-11-27T19:59:22.424Z,98475.75
2018-11-27T20:01:50.746Z,98475.20
2018-11-27T20:04:19.341Z,98478.20
2018-11-27T20:06:47.961Z,98480.67
2018-11-27T20:09:16.688Z,98476.78
2018-11-27T20:11:45.342Z,98470.02
2018-11-27T20:14:14.313Z,98468.96
2018-11-27T20:16:43.196Z,98467.31
2018-11-27T20:19:12.891Z,98467.34
2018-11-27T20:21:42.487Z,98467.09
2018-11-27T20:24:11.508Z,98464.35
2018-11-27T20:26:40.965Z,98462.71
2018-11-27T20:29:09.816Z,98463.00
2018-11-27T20:31:39.229Z,98469.80
2018-11-27T20:34:27.144Z,98474.99
2018-11-27T20:36:55.858Z,98485.40
2018-11-27T20:39:24.721Z,98486.69
2018-11-27T20:41:53.535Z,98493.23
2018-11-27T20:44:41.257Z,98497.55
2018-11-27T20:47:09.815Z,98498.36
2018-11-27T20:49:38.298Z,98494.09
2018-11-27T20:52:06.550Z,98498.42
2018-11-27T20:54:35.043Z,98498.38
2018-11-27T20:57:03.569Z,98498.05
2018-11-27T20:59:32.222Z,98494.77
2018-11-27T21:02:00.694Z,98501.11
2018-11-27T21:04:29.745Z,98504.92
2018-11-27T21:06:58.383Z,98505.42
2018-11-27T21:09:26.891Z,98505.41
2018-11-27T21:11:55.788Z,98503.80
2018-11-27T21:14:24.651Z,98502.70
2018-11-27T21:16:53.192Z,98510.08
2018-11-27T21:19:22.317Z,98508.68
2018-11-27T21:21:51.208Z,98513.34
2018-11-27T21:24:20.184Z,98514.73
2018-11-27T21:26:48.401Z,98518.57
2018-11-27T21:29:16.632Z,98515.28
2018-11-27T21:32:04.240Z,98519.62
2018-11-27T21:34:33.748Z,98517.42
2018-11-27T21:37:02.602Z,98518.19
2018-11-27T21:39:31.527Z,98512.76
2018-11-27T21:41:59.829Z,98508.36
2018-11-27T21:44:28.847Z,98519.00
2018-11-27T21:47:16.712Z,98520.42
2018-11-27T21:49:45.558Z,98521.83
2018-11-27T21:52:14.104Z,98517.44
2018-11-27T21:54:42.311Z,98522.35
2018-11-27T21:57:11.227Z,98528.34
2018-11-27T21:59:40.385Z,98524.53
2018-11-27T22:02:08.887Z,98527.20
2018-11-27T22:04:37.469Z,98525.59
2018-11-27T22:07:06.467Z,98529.12
2018-11-27T22:09:35.072Z,98531.86
2018-11-27T22:12:03.922Z,98531.63
2018-11-27T22:14:32.814Z,98534.38
2018-11-27T22:17:02.036Z,98535.21
2018-11-27T22:19:31.054Z,98536.91
2018-11-27T22:21:59.900Z,98537.70
2018-11-27T22:24:28.389Z,98538.21
2018-11-27T22:26:56.656Z,98532.52
2018-11-27T22:29:24.864Z,98538.50
2018-11-27T22:31:53.990Z,98540.44
2018-11-27T22:34:22.938Z,98544.55
2018-11-27T22:36:51.388Z,98535.25
2018-11-27T22:39:20.339Z,98542.34
2018-11-27T22:41:48.990Z,98534.73
2018-11-27T22:44:18.390Z,98531.95
2018-11-27T22:46:47.203Z,98535.20
2018-11-27T22:49:15.811Z,98530.25
2018-11-27T22:51:44.451Z,98534.91
2018-11-27T22:54:13.799Z,98541.14
2018-11-27T22:56:42.787Z,98540.36
2018-11-27T22:59:11.986Z,98551.53
2018-11-27T23:01:40.593Z,98552.06
2018-11-27T23:04:09.211Z,98551.55
2018-11-27T23:06:38.636Z,98549.09
2018-11-27T23:09:08.829Z,98550.47
2018-11-27T23:11:37.596Z,98547.19
2018-11-27T23:14:06.093Z,98545.28
2018-11-27T23:16:35.607Z,98550.19
2018-11-27T23:19:03.846Z,98552.62
2018-11-27T23:21:32.679Z,98548.07
2018-11-27T23:24:00.913Z,98552.96
2018-11-27T23:26:30.077Z,98544.53
2018-11-27T23:28:58.754Z,98547.84
2018-11-27T23:31:46.650Z,98538.82
2018-11-27T23:34:14.904Z,98539.86
2018-11-27T23:36:43.410Z,98538.78
2018-11-27T23:39:11.980Z,98542.30
2018-11-27T23:41:40.191Z,98540.42
2018-11-27T23:44:09.903Z,98537.94
2018-11-27T23:46:39.285Z,98543.14
2018-11-27T23:49:07.546Z,98544.24
2018-11-27T23:51:36.475Z,98545.59
2018-11-27T23:54:05.250Z,98545.87
2018-11-27T23:56:34.260Z,98543.16
2018-11-27T23:59:03.046Z,98546.95
